createdAt,value
2022-09-17T00:01:41.832Z,9.20
2022-09-17T00:04:10.708Z,8.30
2022-09-17T00:06:39.451Z,8.60
2022-09-17T00:09:08.402Z,8.50
2022-09-17T00:11:41.136Z,9.10
2022-09-17T00:14:16.268Z,9.30
2022-09-17T00:16:47.980Z,8.90
2022-09-17T00:19:25.978Z,9.10
2022-09-17T00:21:54.651Z,8.60
2022-09-17T00:24:23.039Z,8.40
2022-09-17T00:26:52.114Z,8.80
2022-09-17T00:29:20.553Z,8.10
2022-09-17T00:31:49.000Z,9.20
2022-09-17T00:34:17.531Z,7.10
2022-09-17T00:36:46.078Z,7.80
2022-09-17T00:39:15.867Z,8.30
2022-09-17T00:41:44.646Z,9.00
2022-09-17T00:44:48.447Z,8.00
2022-09-17T00:47:18.433Z,7.40
2022-09-17T00:49:49.480Z,8.10
2022-09-17T00:52:29.934Z,7.80
2022-09-17T00:55:22.068Z,7.10
2022-09-17T00:57:53.859Z,7.80
2022-09-17T01:00:23.247Z,7.80
2022-09-17T01:02:54.351Z,8.00
2022-09-17T01:05:36.622Z,8.90
2022-09-17T01:08:26.139Z,8.80
2022-09-17T01:11:50.342Z,7.70
2022-09-17T01:14:42.669Z,8.20
2022-09-17T01:20:18.838Z,7.70
2022-09-17T01:23:38.156Z,7.90
2022-09-17T01:26:44.743Z,7.30
2022-09-17T01:29:43.613Z,8.30
2022-09-17T01:32:43.134Z,8.90
2022-09-17T01:35:54.193Z,8.90
2022-09-17T01:38:32.260Z,8.70
2022-09-17T01:41:27.625Z,7.80
2022-09-17T01:44:17.633Z,7.60
2022-09-17T01:47:03.852Z,8.30
2022-09-17T01:49:35.940Z,8.50
2022-09-17T01:54:43.786Z,8.60
2022-09-17T01:57:41.607Z,9.20
2022-09-17T02:00:14.603Z,8.00
2022-09-17T02:02:54.639Z,8.20
2022-09-17T02:05:49.031Z,8.70
2022-09-17T02:08:34.450Z,9.10
2022-09-17T02:11:11.758Z,8.40
2022-09-17T02:14:04.315Z,8.70
2022-09-17T02:16:40.198Z,8.60
2022-09-17T02:19:35.604Z,8.70
2022-09-17T02:22:25.622Z,8.40
2022-09-17T02:25:11.480Z,8.90
2022-09-17T02:28:28.144Z,8.60
2022-09-17T02:30:56.563Z,7.60
2022-09-17T02:33:27.053Z,8.40
2022-09-17T02:35:55.361Z,9.50
2022-09-17T02:38:30.125Z,9.50
2022-09-17T02:41:46.960Z,9.20
2022-09-17T02:44:55.562Z,9.30
2022-09-17T02:47:34.205Z,9.50
2022-09-17T02:50:24.439Z,8.90
2022-09-17T02:53:13.745Z,8.30
2022-09-17T02:55:42.939Z,8.30
2022-09-17T02:58:17.053Z,9.50
2022-09-17T03:00:47.584Z,8.90
2022-09-17T03:03:32.083Z,8.50
2022-09-17T03:06:00.737Z,9.00
2022-09-17T03:08:34.545Z,9.80
2022-09-17T03:11:04.887Z,9.40
2022-09-17T03:13:33.179Z,9.50
2022-09-17T03:16:03.527Z,9.80
2022-09-17T03:18:32.536Z,8.50
2022-09-17T03:21:00.919Z,9.20
2022-09-17T03:23:29.503Z,9.50
2022-09-17T03:25:57.827Z,9.90
2022-09-17T03:28:26.690Z,10.10
2022-09-17T03:30:55.632Z,10.00
2022-09-17T03:33:24.317Z,10.70
2022-09-17T03:35:52.718Z,10.60
2022-09-17T03:38:21.193Z,9.90
2022-09-17T03:41:07.814Z,10.50
2022-09-17T03:43:36.399Z,10.20
2022-09-17T03:46:04.998Z,10.20
2022-09-17T03:48:37.196Z,10.00
2022-09-17T03:51:06.592Z,10.90
2022-09-17T03:53:35.421Z,10.50
2022-09-17T03:56:06.164Z,10.90
2022-09-17T03:58:36.106Z,11.50
2022-09-17T04:01:05.572Z,11.30
2022-09-17T04:03:34.176Z,11.20
2022-09-17T04:06:02.516Z,11.20
2022-09-17T04:08:30.953Z,11.10
2022-09-17T04:10:59.411Z,10.30
2022-09-17T04:13:27.827Z,10.90
2022-09-17T04:15:56.225Z,11.00
2022-09-17T04:18:24.717Z,10.70
2022-09-17T04:20:53.700Z,10.70
2022-09-17T04:23:22.360Z,9.90
2022-09-17T04:25:50.843Z,10.50
2022-09-17T04:28:19.169Z,11.70
2022-09-17T04:30:49.536Z,11.70
2022-09-17T04:33:18.045Z,12.00
2022-09-17T04:35:46.367Z,12.90
2022-09-17T04:38:18.667Z,12.70
2022-09-17T04:40:47.555Z,11.90
2022-09-17T04:43:16.146Z,11.90
2022-09-17T04:45:49.442Z,12.10
2022-09-17T04:48:18.347Z,11.50
2022-09-17T04:50:46.832Z,10.70
2022-09-17T04:53:15.322Z,11.50
2022-09-17T04:55:43.796Z,11.00
2022-09-17T04:58:12.208Z,11.00
2022-09-17T05:00:42.200Z,11.60
2022-09-17T05:03:10.627Z,10.60
2022-09-17T05:05:39.732Z,12.00
2022-09-17T05:08:08.671Z,11.00
2022-09-17T05:10:36.996Z,10.30
2022-09-17T05:13:05.649Z,10.00
2022-09-17T05:15:34.076Z,10.30
2022-09-17T05:18:02.469Z,10.30
2022-09-17T05:20:31.109Z,10.80
2022-09-17T05:22:59.577Z,9.10
2022-09-17T05:25:28.033Z,10.20
2022-09-17T05:27:56.604Z,10.10
2022-09-17T05:30:25.021Z,9.70
2022-09-17T05:33:01.951Z,9.50
2022-09-17T05:35:31.889Z,9.20
2022-09-17T05:38:03.318Z,11.10
2022-09-17T05:40:33.330Z,14.90
2022-09-17T05:43:04.711Z,14.50
2022-09-17T05:45:35.323Z,12.20
2022-09-17T05:48:07.218Z,12.20
2022-09-17T05:50:35.644Z,11.70
2022-09-17T05:53:07.537Z,12.50
2022-09-17T05:58:19.587Z,11.40
2022-09-17T06:00:49.035Z,11.50
2022-09-17T06:03:20.433Z,12.00
2022-09-17T06:05:58.234Z,12.60
2022-09-17T06:08:29.112Z,11.00
2022-09-17T06:11:02.093Z,13.20
2022-09-17T06:13:31.516Z,13.40
2022-09-17T06:16:00.513Z,12.20
2022-09-17T06:18:30.985Z,12.30
2022-09-17T06:21:02.349Z,11.50
2022-09-17T06:23:37.817Z,12.10
2022-09-17T06:26:07.043Z,13.10
2022-09-17T06:28:41.196Z,13.20
2022-09-17T06:31:12.974Z,12.10
2022-09-17T06:33:41.830Z,10.90
2022-09-17T06:36:14.043Z,12.00
2022-09-17T06:38:43.667Z,10.70
2022-09-17T06:41:12.712Z,12.00
2022-09-17T06:43:41.135Z,12.40
2022-09-17T06:46:10.730Z,11.30
2022-09-17T06:48:39.534Z,10.60
2022-09-17T06:51:11.310Z,10.20
2022-09-17T06:53:40.709Z,10.00
2022-09-17T06:56:10.005Z,11.50
2022-09-17T06:58:38.838Z,13.00
2022-09-17T07:01:07.373Z,13.40
2022-09-17T07:03:36.004Z,11.70
2022-09-17T07:06:10.426Z,12.60
2022-09-17T07:08:39.669Z,11.40
2022-09-17T07:11:08.502Z,11.10
2022-09-17T07:13:36.818Z,12.70
2022-09-17T07:16:06.956Z,11.60
2022-09-17T07:18:35.395Z,11.40
2022-09-17T07:21:06.622Z,10.50
2022-09-17T07:23:38.089Z,11.00
2022-09-17T07:26:14.948Z,13.00
2022-09-17T07:28:44.654Z,15.50
2022-09-17T07:31:16.668Z,13.40
2022-09-17T07:33:45.986Z,12.50
2022-09-17T07:36:18.172Z,12.10
2022-09-17T07:41:18.346Z,10.90
2022-09-17T07:43:46.753Z,10.40
2022-09-17T07:46:19.072Z,11.10
2022-09-17T07:48:49.569Z,11.90
2022-09-17T07:51:22.077Z,10.90
2022-09-17T07:53:59.175Z,12.30
2022-09-17T07:56:28.552Z,11.90
2022-09-17T07:58:57.532Z,10.90
2022-09-17T08:01:27.445Z,11.30
2022-09-17T08:03:56.094Z,10.70
2022-09-17T08:06:28.269Z,10.30
2022-09-17T08:09:02.893Z,10.40
2022-09-17T08:11:54.481Z,11.10
2022-09-17T08:14:20.438Z,10.10
2022-09-17T08:16:48.786Z,11.70
2022-09-17T08:19:19.149Z,11.00
2022-09-17T08:21:47.920Z,10.80
2022-09-17T08:24:16.353Z,11.00
2022-09-17T08:26:44.699Z,10.90
2022-09-17T08:29:13.062Z,10.80
2022-09-17T08:31:41.486Z,11.60
2022-09-17T08:34:10.261Z,10.40
2022-09-17T08:36:38.630Z,11.60
2022-09-17T08:39:06.965Z,10.50
2022-09-17T08:41:51.559Z,12.30
2022-09-17T08:44:30.877Z,10.40
2022-09-17T08:47:09.187Z,11.60
2022-09-17T08:49:49.945Z,11.60
2022-09-17T08:52:48.437Z,11.00
2022-09-17T08:55:54.414Z,11.10
2022-09-17T08:59:21.013Z,10.60
2022-09-17T09:02:32.865Z,11.30
2022-09-17T09:05:03.902Z,11.10
2022-09-17T09:07:43.612Z,9.70
2022-09-17T09:10:26.026Z,10.00
2022-09-17T09:12:59.162Z,9.40
2022-09-17T09:15:36.673Z,9.70
2022-09-17T09:18:21.771Z,8.90
2022-09-17T09:21:01.984Z,10.10
2022-09-17T09:23:48.154Z,9.80
2022-09-17T09:26:20.636Z,10.00
2022-09-17T09:29:01.739Z,10.20
2022-09-17T09:31:56.698Z,10.70
2022-09-17T09:34:29.397Z,9.90
2022-09-17T09:37:18.308Z,9.90
2022-09-17T09:39:50.330Z,8.80
2022-09-17T09:42:34.914Z,9.40
2022-09-17T09:45:18.337Z,9.80
2022-09-17T09:47:55.252Z,8.50
2022-09-17T09:51:20.844Z,8.70
2022-09-17T09:54:13.031Z,8.60
2022-09-17T09:57:29.207Z,9.30
2022-09-17T10:00:40.671Z,8.30
2022-09-17T10:03:21.210Z,8.90
2022-09-17T10:06:02.588Z,9.30
2022-09-17T10:08:37.535Z,9.10
2022-09-17T10:11:21.841Z,9.30
2022-09-17T10:13:50.506Z,9.50
2022-09-17T10:16:18.935Z,9.20
2022-09-17T10:18:50.004Z,10.10
2022-09-17T10:21:36.648Z,9.30
2022-09-17T10:24:31.529Z,9.70
2022-09-17T10:27:14.101Z,9.90
2022-09-17T10:29:46.372Z,9.40
2022-09-17T10:32:23.058Z,9.40
2022-09-17T10:35:16.704Z,8.90
2022-09-17T10:37:50.701Z,8.70
2022-09-17T10:40:19.163Z,8.30
2022-09-17T10:43:09.208Z,9.40
2022-09-17T10:45:41.144Z,8.90
2022-09-17T10:50:55.314Z,9.00
2022-09-17T10:53:25.421Z,8.70
2022-09-17T10:56:20.739Z,8.90
2022-09-17T10:59:29.513Z,8.90
2022-09-17T11:02:36.854Z,7.10
2022-09-17T11:05:32.819Z,8.00
2022-09-17T11:08:08.233Z,8.10
2022-09-17T11:11:00.857Z,7.70
2022-09-17T11:14:18.979Z,7.90
2022-09-17T11:17:04.254Z,7.20
2022-09-17T11:20:05.033Z,7.70
2022-09-17T11:22:57.546Z,7.50
2022-09-17T11:26:13.366Z,5.80
2022-09-17T11:29:47.930Z,6.70
2022-09-17T11:32:59.528Z,6.00
2022-09-17T11:35:37.339Z,6.20
2022-09-17T11:38:25.226Z,6.00
2022-09-17T11:41:07.014Z,7.20
2022-09-17T11:43:39.626Z,6.50
2022-09-17T11:46:27.474Z,6.70
2022-09-17T11:49:06.054Z,7.20
2022-09-17T11:51:48.257Z,7.10
2022-09-17T11:54:53.122Z,6.30
2022-09-17T11:57:42.638Z,6.80
2022-09-17T12:00:22.713Z,6.50
2022-09-17T12:03:12.419Z,7.00
2022-09-17T12:05:50.550Z,6.30
2022-09-17T12:08:26.860Z,6.40
2022-09-17T12:11:10.219Z,6.50
2022-09-17T12:13:57.254Z,5.60
2022-09-17T12:16:31.514Z,5.50
2022-09-17T12:19:33.370Z,6.30
2022-09-17T12:22:20.935Z,6.80
2022-09-17T12:24:54.096Z,5.80
2022-09-17T12:27:40.774Z,6.40
2022-09-17T12:30:22.942Z,6.00
2022-09-17T12:33:28.586Z,6.30
2022-09-17T12:36:29.590Z,6.00
2022-09-17T12:39:34.376Z,6.30
2022-09-17T12:42:48.617Z,5.60
2022-09-17T12:46:07.803Z,6.20
2022-09-17T12:49:10.702Z,6.30
2022-09-17T12:52:08.200Z,6.30
2022-09-17T12:55:00.548Z,5.80
2022-09-17T13:00:11.005Z,6.20
2022-09-17T13:03:30.589Z,6.50
2022-09-17T13:06:10.618Z,6.50
2022-09-17T13:09:03.196Z,8.10
2022-09-17T13:11:51.060Z,7.70
2022-09-17T13:14:37.443Z,7.60
2022-09-17T13:17:19.518Z,6.60
2022-09-17T13:22:49.518Z,6.90
2022-09-17T13:27:50.273Z,6.60
2022-09-17T13:30:23.079Z,6.50
2022-09-17T13:32:53.637Z,7.50
2022-09-17T13:35:22.203Z,7.40
2022-09-17T13:37:57.980Z,7.60
2022-09-17T13:40:35.179Z,7.40
2022-09-17T13:43:08.305Z,8.00
2022-09-17T13:45:59.914Z,7.60
2022-09-17T13:48:36.277Z,8.60
2022-09-17T13:51:31.005Z,7.60
2022-09-17T13:54:07.837Z,8.40
2022-09-17T13:56:50.646Z,7.90
2022-09-17T13:59:24.039Z,7.90
2022-09-17T14:02:02.162Z,8.10
2022-09-17T14:04:42.667Z,8.90
2022-09-17T14:07:36.048Z,9.20
2022-09-17T14:10:16.284Z,9.10
2022-09-17T14:12:56.207Z,9.00
2022-09-17T14:15:36.251Z,8.40
2022-09-17T14:18:29.515Z,9.40
2022-09-17T14:21:09.649Z,9.10
2022-09-17T14:23:48.517Z,9.80
2022-09-17T14:27:01.650Z,9.00
2022-09-17T14:29:43.322Z,9.10
2022-09-17T14:32:28.006Z,9.50
2022-09-17T14:34:57.442Z,9.70
2022-09-17T14:37:25.982Z,9.40
2022-09-17T14:39:54.811Z,9.10
2022-09-17T14:42:34.787Z,9.10
2022-09-17T14:45:16.077Z,9.30
2022-09-17T14:47:44.396Z,9.30
2022-09-17T14:50:26.700Z,9.80
2022-09-17T14:52:55.062Z,9.90
2022-09-17T14:55:31.208Z,10.40
2022-09-17T14:58:04.968Z,7.60
2022-09-17T15:00:38.930Z,7.80
2022-09-17T15:03:24.221Z,7.60
2022-09-17T15:05:53.124Z,7.60
2022-09-17T15:08:28.969Z,7.00
2022-09-17T15:11:03.840Z,8.00
2022-09-17T15:13:41.698Z,7.80
2022-09-17T15:16:21.663Z,7.20
2022-09-17T15:18:55.511Z,7.90
2022-09-17T15:21:41.928Z,10.40
2022-09-17T15:24:50.535Z,12.40
2022-09-17T15:27:30.651Z,10.00
2022-09-17T15:30:06.497Z,8.20
2022-09-17T15:32:35.195Z,7.40
2022-09-17T15:35:16.189Z,7.10
2022-09-17T15:38:11.499Z,6.20
2022-09-17T15:40:41.124Z,7.60
2022-09-17T15:43:31.822Z,6.20
2022-09-17T15:46:32.747Z,6.70
2022-09-17T15:49:03.137Z,5.60
2022-09-17T15:51:37.007Z,6.30
2022-09-17T15:54:07.040Z,6.90
2022-09-17T15:56:38.948Z,6.50
2022-09-17T15:59:28.831Z,7.40
2022-09-17T16:02:01.713Z,6.90
2022-09-17T16:04:33.415Z,7.50
2022-09-17T16:07:12.288Z,6.90
2022-09-17T16:09:52.551Z,6.50
2022-09-17T16:12:26.978Z,6.60
2022-09-17T16:14:58.754Z,7.00
2022-09-17T16:17:37.419Z,6.50
2022-09-17T16:20:27.800Z,6.00
2022-09-17T16:22:57.503Z,7.10
2022-09-17T16:25:29.307Z,4.70
2022-09-17T16:28:12.681Z,6.70
2022-09-17T16:30:45.921Z,6.10
2022-09-17T16:33:17.569Z,5.70
2022-09-17T16:35:46.047Z,6.20
2022-09-17T16:38:14.510Z,6.30
2022-09-17T16:40:47.301Z,6.40
2022-09-17T16:43:15.923Z,6.10
2022-09-17T16:45:58.097Z,6.60
2022-09-17T16:50:55.419Z,6.50
2022-09-17T16:53:23.818Z,5.60
2022-09-17T16:55:52.287Z,6.50
2022-09-17T16:58:20.872Z,7.10
2022-09-17T17:00:49.241Z,7.70
2022-09-17T17:03:17.665Z,6.60
2022-09-17T17:05:46.493Z,6.40
2022-09-17T17:08:14.843Z,5.90
2022-09-17T17:10:43.296Z,7.00
2022-09-17T17:13:11.696Z,6.50
2022-09-17T17:15:41.698Z,6.40
2022-09-17T17:18:10.872Z,6.30
2022-09-17T17:20:39.198Z,6.40
2022-09-17T17:23:09.153Z,6.50
2022-09-17T17:25:37.597Z,6.50
2022-09-17T17:28:06.150Z,5.90
2022-09-17T17:30:35.206Z,6.80
2022-09-17T17:33:04.271Z,6.30
2022-09-17T17:35:32.817Z,5.30
2022-09-17T17:38:01.153Z,5.40
2022-09-17T17:40:29.572Z,4.40
2022-09-17T17:42:58.019Z,3.30
2022-09-17T17:45:26.397Z,3.40
2022-09-17T17:47:54.968Z,3.30
2022-09-17T17:50:23.401Z,3.60
2022-09-17T17:52:55.750Z,3.50
2022-09-17T17:55:24.298Z,3.30
2022-09-17T17:58:01.371Z,4.10
2022-09-17T18:00:30.038Z,4.00
2022-09-17T18:02:58.848Z,4.20
2022-09-17T18:05:27.319Z,4.30
2022-09-17T18:07:55.882Z,4.60
2022-09-17T18:10:24.336Z,4.90
2022-09-17T18:12:54.001Z,5.20
2022-09-17T18:15:22.384Z,4.80
2022-09-17T18:17:53.617Z,4.40
2022-09-17T18:20:22.961Z,4.70
2022-09-17T18:22:51.437Z,4.70
2022-09-17T18:25:19.921Z,5.00
2022-09-17T18:27:48.368Z,4.90
2022-09-17T18:30:16.952Z,5.60
2022-09-17T18:32:49.254Z,4.90
2022-09-17T18:35:20.091Z,5.10
2022-09-17T18:37:48.449Z,4.90
2022-09-17T18:40:17.090Z,4.70
2022-09-17T18:42:45.445Z,5.00
2022-09-17T18:45:13.979Z,5.20
2022-09-17T18:47:43.695Z,4.90
2022-09-17T18:50:13.995Z,4.90
2022-09-17T18:52:42.353Z,4.60
2022-09-17T18:55:11.077Z,4.60
2022-09-17T18:57:39.384Z,4.70
2022-09-17T19:00:11.521Z,5.20
2022-09-17T19:02:39.919Z,4.60
2022-09-17T19:05:08.760Z,4.80
2022-09-17T19:07:37.071Z,4.60
2022-09-17T19:10:06.132Z,4.40
2022-09-17T19:12:34.511Z,4.40
2022-09-17T19:15:03.004Z,4.90
2022-09-17T19:17:32.130Z,4.50
2022-09-17T19:20:00.647Z,5.30
2022-09-17T19:22:29.522Z,5.10
2022-09-17T19:24:57.901Z,5.00
2022-09-17T19:27:26.389Z,4.90
2022-09-17T19:29:59.343Z,5.00
2022-09-17T19:32:28.620Z,5.40
2022-09-17T19:34:57.247Z,5.40
2022-09-17T19:37:25.676Z,5.30
2022-09-17T19:39:54.332Z,4.80
2022-09-17T19:42:23.564Z,4.50
2022-09-17T19:44:52.754Z,4.70
2022-09-17T19:47:27.208Z,4.70
2022-09-17T19:49:57.486Z,5.50
2022-09-17T19:52:25.996Z,5.50
2022-09-17T19:54:54.645Z,4.90
2022-09-17T19:57:23.032Z,5.30
2022-09-17T19:59:51.360Z,4.90
2022-09-17T20:02:19.802Z,5.20
2022-09-17T20:04:49.707Z,5.30
2022-09-17T20:07:18.145Z,5.30
2022-09-17T20:09:46.579Z,5.20
2022-09-17T20:12:14.966Z,5.90
2022-09-17T20:14:43.437Z,5.90
2022-09-17T20:17:13.374Z,6.00
2022-09-17T20:19:41.795Z,5.90
2022-09-17T20:22:10.239Z,6.10
2022-09-17T20:24:38.963Z,5.50
2022-09-17T20:27:07.365Z,6.00
2022-09-17T20:29:35.815Z,5.80
2022-09-17T20:32:04.965Z,5.80
2022-09-17T20:34:34.161Z,5.60
2022-09-17T20:37:13.169Z,5.10
2022-09-17T20:39:42.765Z,5.90
2022-09-17T20:42:11.255Z,5.70
2022-09-17T20:44:39.638Z,6.00
2022-09-17T20:47:08.285Z,5.80
2022-09-17T20:49:36.997Z,5.70
2022-09-17T20:52:05.822Z,5.80
2022-09-17T20:54:34.309Z,5.50
2022-09-17T20:57:03.075Z,5.70
2022-09-17T20:59:50.743Z,6.20
2022-09-17T21:02:22.177Z,5.60
2022-09-17T21:04:50.595Z,5.30
2022-09-17T21:07:19.072Z,6.00
2022-09-17T21:09:47.953Z,6.10
2022-09-17T21:12:16.331Z,5.90
2022-09-17T21:14:44.791Z,6.40
2022-09-17T21:17:13.272Z,5.40
2022-09-17T21:19:42.011Z,5.70
2022-09-17T21:22:10.560Z,5.50
2022-09-17T21:24:39.121Z,6.00
2022-09-17T21:27:09.879Z,6.20
2022-09-17T21:29:39.488Z,6.70
2022-09-17T21:32:08.110Z,5.80
2022-09-17T21:34:37.219Z,5.90
2022-09-17T21:37:06.695Z,6.70
2022-09-17T21:39:35.932Z,6.60
2022-09-17T21:42:04.672Z,6.60
2022-09-17T21:44:33.959Z,7.10
2022-09-17T21:47:02.527Z,6.60
2022-09-17T21:49:31.425Z,6.10
2022-09-17T21:52:00.373Z,6.50
2022-09-17T21:54:28.882Z,7.10
2022-09-17T21:56:59.380Z,6.60
2022-09-17T21:59:27.891Z,6.80
2022-09-17T22:01:56.502Z,6.40
2022-09-17T22:04:27.076Z,6.20
2022-09-17T22:06:55.825Z,6.80
2022-09-17T22:09:25.900Z,7.30
2022-09-17T22:11:54.648Z,7.30
2022-09-17T22:14:25.150Z,7.40
2022-09-17T22:16:57.357Z,7.30
2022-09-17T22:19:26.741Z,8.10
2022-09-17T22:21:56.574Z,7.70
2022-09-17T22:24:26.516Z,7.80
2022-09-17T22:26:58.255Z,7.00
2022-09-17T22:29:31.684Z,7.20
2022-09-17T22:32:00.407Z,7.90
2022-09-17T22:34:30.002Z,7.50
2022-09-17T22:36:59.993Z,7.00
2022-09-17T22:39:28.499Z,7.30
2022-09-17T22:41:57.014Z,7.20
2022-09-17T22:44:25.499Z,6.50
2022-09-17T22:46:53.989Z,6.30
2022-09-17T22:49:22.536Z,6.80
2022-09-17T22:51:50.947Z,6.80
2022-09-17T22:54:19.881Z,7.60
2022-09-17T22:56:49.071Z,7.70
2022-09-17T22:59:18.419Z,7.40
2022-09-17T23:01:48.072Z,7.80
2022-09-17T23:04:16.551Z,7.90
2022-09-17T23:06:44.822Z,8.40
2022-09-17T23:09:14.197Z,7.80
2022-09-17T23:11:43.113Z,8.30
2022-09-17T23:14:13.447Z,8.80
2022-09-17T23:16:47.998Z,7.20
2022-09-17T23:19:18.982Z,7.70
2022-09-17T23:21:47.572Z,7.80
2022-09-17T23:24:20.610Z,7.20
2022-09-17T23:26:50.334Z,7.90
2022-09-17T23:29:19.854Z,5.90
2022-09-17T23:31:48.256Z,7.00
2022-09-17T23:34:16.603Z,6.60
2022-09-17T23:36:45.038Z,7.10
2022-09-17T23:39:13.491Z,6.30
2022-09-17T23:41:44.952Z,7.30
2022-09-17T23:44:15.588Z,7.60
2022-09-17T23:46:46.310Z,7.40
2022-09-17T23:49:16.356Z,6.90
2022-09-17T23:51:45.136Z,7.00
2022-09-17T23:54:13.648Z,7.10
2022-09-17T23:56:42.101Z,6.60
2022-09-17T23:59:11.788Z,6.00
